sensor_id;sensor_type;location;lat;lon;timestamp;P1;durP1;ratioP1;P2;durP2;ratioP2
27265;SDS011;14766;51.380;13.762;2022-09-09T00:00:41;1.35;;;0.82;;
27265;SDS011;14766;51.380;13.762;2022-09-09T00:03:30;1.05;;;0.80;;
27265;SDS011;14766;51.380;13.762;2022-09-09T00:17:31;1.98;;;1.00;;
27265;SDS011;14766;51.380;13.762;2022-09-09T00:20:13;1.67;;;1.05;;
27265;SDS011;14766;51.380;13.762;2022-09-09T00:22:56;2.53;;;1.15;;
27265;SDS011;14766;51.380;13.762;2022-09-09T00:25:34;3.08;;;1.00;;
27265;SDS011;14766;51.380;13.762;2022-09-09T00:28:12;1.20;;;0.80;;
27265;SDS011;14766;51.380;13.762;2022-09-09T00:30:45;1.92;;;0.77;;
27265;SDS011;14766;51.380;13.762;2022-09-09T00:33:20;1.58;;;0.90;;
27265;SDS011;14766;51.380;13.762;2022-09-09T00:35:51;0.80;;;0.73;;
27265;SDS011;14766;51.380;13.762;2022-09-09T00:38:35;1.23;;;0.82;;
27265;SDS011;14766;51.380;13.762;2022-09-09T00:50:35;1.60;;;0.90;;
27265;SDS011;14766;51.380;13.762;2022-09-09T00:56:12;2.10;;;1.05;;
27265;SDS011;14766;51.380;13.762;2022-09-09T00:58:42;0.80;;;0.80;;
27265;SDS011;14766;51.380;13.762;2022-09-09T01:01:17;0.98;;;0.70;;
27265;SDS011;14766;51.380;13.762;2022-09-09T01:03:49;1.67;;;0.93;;
27265;SDS011;14766;51.380;13.762;2022-09-09T01:06:32;2.78;;;0.90;;
27265;SDS011;14766;51.380;13.762;2022-09-09T01:12:11;0.80;;;0.80;;
27265;SDS011;14766;51.380;13.762;2022-09-09T01:14:45;1.77;;;1.23;;
27265;SDS011;14766;51.380;13.762;2022-09-09T01:28:37;0.95;;;0.70;;
27265;SDS011;14766;51.380;13.762;2022-09-09T01:31:11;1.17;;;0.80;;
27265;SDS011;14766;51.380;13.762;2022-09-09T01:33:45;1.05;;;0.80;;
27265;SDS011;14766;51.380;13.762;2022-09-09T01:39:02;1.90;;;1.08;;
27265;SDS011;14766;51.380;13.762;2022-09-09T01:41:30;1.33;;;0.90;;
27265;SDS011;14766;51.380;13.762;2022-09-09T01:44:07;0.90;;;0.70;;
27265;SDS011;14766;51.380;13.762;2022-09-09T01:46:38;1.98;;;0.93;;
27265;SDS011;14766;51.380;13.762;2022-09-09T01:49:12;1.77;;;0.90;;
27265;SDS011;14766;51.380;13.762;2022-09-09T01:51:39;2.25;;;0.80;;
27265;SDS011;14766;51.380;13.762;2022-09-09T01:54:12;0.80;;;0.60;;
27265;SDS011;14766;51.380;13.762;2022-09-09T01:59:50;0.80;;;0.80;;
27265;SDS011;14766;51.380;13.762;2022-09-09T02:02:35;1.30;;;0.75;;
27265;SDS011;14766;51.380;13.762;2022-09-09T02:08:29;4.10;;;1.42;;
27265;SDS011;14766;51.380;13.762;2022-09-09T02:11:18;1.67;;;1.00;;
27265;SDS011;14766;51.380;13.762;2022-09-09T02:14:04;1.00;;;0.80;;
27265;SDS011;14766;51.380;13.762;2022-09-09T02:19:41;5.38;;;1.00;;
27265;SDS011;14766;51.380;13.762;2022-09-09T02:22:25;2.08;;;0.90;;
27265;SDS011;14766;51.380;13.762;2022-09-09T02:24:57;1.48;;;0.98;;
27265;SDS011;14766;51.380;13.762;2022-09-09T02:27:28;0.77;;;0.70;;
27265;SDS011;14766;51.380;13.762;2022-09-09T02:29:56;1.05;;;0.80;;
27265;SDS011;14766;51.380;13.762;2022-09-09T02:32:40;1.00;;;0.75;;
27265;SDS011;14766;51.380;13.762;2022-09-09T02:35:14;2.10;;;0.90;;
27265;SDS011;14766;51.380;13.762;2022-09-09T02:37:50;1.05;;;0.77;;
27265;SDS011;14766;51.380;13.762;2022-09-09T02:40:21;1.35;;;1.00;;
27265;SDS011;14766;51.380;13.762;2022-09-09T02:42:56;1.47;;;0.90;;
27265;SDS011;14766;51.380;13.762;2022-09-09T02:45:25;3.08;;;1.05;;
27265;SDS011;14766;51.380;13.762;2022-09-09T02:48:03;2.03;;;0.80;;
27265;SDS011;14766;51.380;13.762;2022-09-09T02:53:17;1.55;;;0.80;;
27265;SDS011;14766;51.380;13.762;2022-09-09T02:56:00;0.98;;;0.80;;
27265;SDS011;14766;51.380;13.762;2022-09-09T02:58:36;1.95;;;0.75;;
27265;SDS011;14766;51.380;13.762;2022-09-09T03:01:05;1.42;;;1.13;;
27265;SDS011;14766;51.380;13.762;2022-09-09T03:03:33;1.13;;;0.80;;
27265;SDS011;14766;51.380;13.762;2022-09-09T03:06:05;0.85;;;0.73;;
27265;SDS011;14766;51.380;13.762;2022-09-09T03:08:33;1.83;;;1.00;;
27265;SDS011;14766;51.380;13.762;2022-09-09T03:11:01;1.25;;;0.65;;
27265;SDS011;14766;51.380;13.762;2022-09-09T03:13:32;1.75;;;0.90;;
27265;SDS011;14766;51.380;13.762;2022-09-09T03:16:00;1.85;;;0.80;;
27265;SDS011;14766;51.380;13.762;2022-09-09T03:18:31;1.63;;;0.68;;
27265;SDS011;14766;51.380;13.762;2022-09-09T03:20:58;1.48;;;0.98;;
27265;SDS011;14766;51.380;13.762;2022-09-09T03:23:27;0.95;;;0.80;;
27265;SDS011;14766;51.380;13.762;2022-09-09T03:25:59;1.23;;;0.82;;
27265;SDS011;14766;51.380;13.762;2022-09-09T03:28:36;1.17;;;0.60;;
27265;SDS011;14766;51.380;13.762;2022-09-09T03:31:05;2.40;;;0.95;;
27265;SDS011;14766;51.380;13.762;2022-09-09T03:33:37;0.95;;;0.80;;
27265;SDS011;14766;51.380;13.762;2022-09-09T03:36:06;2.00;;;1.08;;
27265;SDS011;14766;51.380;13.762;2022-09-09T03:38:35;4.55;;;0.90;;
27265;SDS011;14766;51.380;13.762;2022-09-09T03:41:03;1.42;;;0.90;;
27265;SDS011;14766;51.380;13.762;2022-09-09T03:43:33;0.90;;;0.70;;
27265;SDS011;14766;51.380;13.762;2022-09-09T03:46:01;1.10;;;0.90;;
27265;SDS011;14766;51.380;13.762;2022-09-09T03:48:29;2.05;;;0.98;;
27265;SDS011;14766;51.380;13.762;2022-09-09T03:50:58;0.88;;;0.77;;
27265;SDS011;14766;51.380;13.762;2022-09-09T03:53:30;1.15;;;1.00;;
27265;SDS011;14766;51.380;13.762;2022-09-09T03:55:58;2.63;;;1.15;;
27265;SDS011;14766;51.380;13.762;2022-09-09T03:58:28;2.22;;;1.00;;
27265;SDS011;14766;51.380;13.762;2022-09-09T04:01:10;1.80;;;1.00;;
27265;SDS011;14766;51.380;13.762;2022-09-09T04:03:46;2.22;;;1.08;;
27265;SDS011;14766;51.380;13.762;2022-09-09T04:06:13;1.17;;;0.80;;
27265;SDS011;14766;51.380;13.762;2022-09-09T04:08:44;1.52;;;1.05;;
27265;SDS011;14766;51.380;13.762;2022-09-09T04:11:15;1.63;;;0.80;;
27265;SDS011;14766;51.380;13.762;2022-09-09T04:13:43;4.68;;;1.10;;
27265;SDS011;14766;51.380;13.762;2022-09-09T04:16:12;1.58;;;1.00;;
27265;SDS011;14766;51.380;13.762;2022-09-09T04:18:43;1.38;;;0.80;;
27265;SDS011;14766;51.380;13.762;2022-09-09T04:21:11;1.77;;;1.10;;
27265;SDS011;14766;51.380;13.762;2022-09-09T04:23:39;2.10;;;1.00;;
27265;SDS011;14766;51.380;13.762;2022-09-09T04:26:07;1.70;;;0.90;;
27265;SDS011;14766;51.380;13.762;2022-09-09T04:28:37;1.63;;;1.08;;
27265;SDS011;14766;51.380;13.762;2022-09-09T04:31:14;2.80;;;0.98;;
27265;SDS011;14766;51.380;13.762;2022-09-09T04:33:46;1.88;;;1.30;;
27265;SDS011;14766;51.380;13.762;2022-09-09T04:36:13;2.75;;;1.10;;
27265;SDS011;14766;51.380;13.762;2022-09-09T04:38:41;1.65;;;1.10;;
27265;SDS011;14766;51.380;13.762;2022-09-09T04:41:08;2.33;;;1.30;;
27265;SDS011;14766;51.380;13.762;2022-09-09T04:43:40;1.27;;;0.82;;
27265;SDS011;14766;51.380;13.762;2022-09-09T04:46:08;1.52;;;0.90;;
27265;SDS011;14766;51.380;13.762;2022-09-09T04:48:35;1.67;;;0.77;;
27265;SDS011;14766;51.380;13.762;2022-09-09T04:51:05;1.58;;;1.02;;
27265;SDS011;14766;51.380;13.762;2022-09-09T04:53:34;1.67;;;1.00;;
27265;SDS011;14766;51.380;13.762;2022-09-09T04:56:03;1.15;;;1.05;;
27265;SDS011;14766;51.380;13.762;2022-09-09T04:58:42;3.17;;;1.10;;
27265;SDS011;14766;51.380;13.762;2022-09-09T05:01:11;1.58;;;1.02;;
27265;SDS011;14766;51.380;13.762;2022-09-09T05:03:45;2.70;;;0.90;;
27265;SDS011;14766;51.380;13.762;2022-09-09T05:06:17;1.25;;;1.00;;
27265;SDS011;14766;51.380;13.762;2022-09-09T05:08:48;1.55;;;0.95;;
27265;SDS011;14766;51.380;13.762;2022-09-09T05:11:23;1.10;;;0.85;;
27265;SDS011;14766;51.380;13.762;2022-09-09T05:13:59;1.95;;;1.00;;
27265;SDS011;14766;51.380;13.762;2022-09-09T05:16:28;6.70;;;1.45;;
27265;SDS011;14766;51.380;13.762;2022-09-09T05:18:56;1.70;;;0.80;;
27265;SDS011;14766;51.380;13.762;2022-09-09T05:21:24;2.40;;;1.02;;
27265;SDS011;14766;51.380;13.762;2022-09-09T05:23:52;2.85;;;1.00;;
27265;SDS011;14766;51.380;13.762;2022-09-09T05:26:20;2.05;;;0.90;;
27265;SDS011;14766;51.380;13.762;2022-09-09T05:28:51;2.13;;;1.10;;
27265;SDS011;14766;51.380;13.762;2022-09-09T05:31:18;2.67;;;1.20;;
27265;SDS011;14766;51.380;13.762;2022-09-09T05:33:49;2.83;;;1.05;;
27265;SDS011;14766;51.380;13.762;2022-09-09T05:36:19;2.60;;;1.10;;
27265;SDS011;14766;51.380;13.762;2022-09-09T05:38:51;1.50;;;0.80;;
27265;SDS011;14766;51.380;13.762;2022-09-09T05:41:20;1.52;;;0.90;;
27265;SDS011;14766;51.380;13.762;2022-09-09T05:43:52;1.35;;;0.90;;
27265;SDS011;14766;51.380;13.762;2022-09-09T05:46:21;2.05;;;0.60;;
27265;SDS011;14766;51.380;13.762;2022-09-09T05:48:51;1.52;;;1.00;;
27265;SDS011;14766;51.380;13.762;2022-09-09T05:51:25;1.77;;;0.82;;
27265;SDS011;14766;51.380;13.762;2022-09-09T05:53:59;2.08;;;1.10;;
27265;SDS011;14766;51.380;13.762;2022-09-09T05:56:30;2.90;;;1.20;;
27265;SDS011;14766;51.380;13.762;2022-09-09T05:58:58;1.65;;;0.98;;
27265;SDS011;14766;51.380;13.762;2022-09-09T06:01:31;1.65;;;1.00;;
27265;SDS011;14766;51.380;13.762;2022-09-09T06:04:01;6.63;;;1.23;;
27265;SDS011;14766;51.380;13.762;2022-09-09T06:06:32;2.45;;;0.88;;
27265;SDS011;14766;51.380;13.762;2022-09-09T06:09:09;2.45;;;0.88;;
27265;SDS011;14766;51.380;13.762;2022-09-09T06:11:39;4.65;;;1.08;;
27265;SDS011;14766;51.380;13.762;2022-09-09T06:14:07;2.42;;;1.10;;
27265;SDS011;14766;51.380;13.762;2022-09-09T06:16:36;0.90;;;0.60;;
27265;SDS011;14766;51.380;13.762;2022-09-09T06:19:21;2.80;;;1.05;;
27265;SDS011;14766;51.380;13.762;2022-09-09T06:21:50;4.43;;;1.20;;
27265;SDS011;14766;51.380;13.762;2022-09-09T06:24:17;2.40;;;1.17;;
27265;SDS011;14766;51.380;13.762;2022-09-09T06:26:47;2.42;;;1.30;;
27265;SDS011;14766;51.380;13.762;2022-09-09T06:29:20;1.83;;;1.30;;
27265;SDS011;14766;51.380;13.762;2022-09-09T06:31:49;1.33;;;1.20;;
27265;SDS011;14766;51.380;13.762;2022-09-09T06:34:22;2.38;;;1.30;;
27265;SDS011;14766;51.380;13.762;2022-09-09T06:36:54;3.53;;;1.00;;
27265;SDS011;14766;51.380;13.762;2022-09-09T06:39:26;2.97;;;0.93;;
27265;SDS011;14766;51.380;13.762;2022-09-09T06:41:54;1.48;;;0.90;;
27265;SDS011;14766;51.380;13.762;2022-09-09T06:44:41;2.05;;;0.90;;
27265;SDS011;14766;51.380;13.762;2022-09-09T06:47:14;2.13;;;0.80;;
27265;SDS011;14766;51.380;13.762;2022-09-09T06:49:42;0.98;;;0.60;;
27265;SDS011;14766;51.380;13.762;2022-09-09T06:52:14;2.30;;;0.93;;
27265;SDS011;14766;51.380;13.762;2022-09-09T06:54:46;1.50;;;0.70;;
27265;SDS011;14766;51.380;13.762;2022-09-09T06:57:15;2.58;;;1.00;;
27265;SDS011;14766;51.380;13.762;2022-09-09T07:00:02;1.98;;;0.90;;
27265;SDS011;14766;51.380;13.762;2022-09-09T07:02:30;3.60;;;1.40;;
27265;SDS011;14766;51.380;13.762;2022-09-09T07:04:57;3.67;;;1.25;;
27265;SDS011;14766;51.380;13.762;2022-09-09T07:07:25;1.17;;;1.00;;
27265;SDS011;14766;51.380;13.762;2022-09-09T07:09:55;2.80;;;0.88;;
27265;SDS011;14766;51.380;13.762;2022-09-09T07:12:22;3.35;;;1.00;;
27265;SDS011;14766;51.380;13.762;2022-09-09T07:14:55;1.23;;;0.70;;
27265;SDS011;14766;51.380;13.762;2022-09-09T07:17:23;1.73;;;0.77;;
27265;SDS011;14766;51.380;13.762;2022-09-09T07:19:51;2.92;;;1.10;;
27265;SDS011;14766;51.380;13.762;2022-09-09T07:22:19;3.22;;;0.70;;
27265;SDS011;14766;51.380;13.762;2022-09-09T07:24:46;1.20;;;0.65;;
27265;SDS011;14766;51.380;13.762;2022-09-09T07:27:15;1.38;;;0.80;;
27265;SDS011;14766;51.380;13.762;2022-09-09T07:29:43;1.30;;;0.60;;
27265;SDS011;14766;51.380;13.762;2022-09-09T07:32:13;0.65;;;0.50;;
27265;SDS011;14766;51.380;13.762;2022-09-09T07:34:41;1.60;;;0.65;;
27265;SDS011;14766;51.380;13.762;2022-09-09T07:37:09;1.13;;;0.52;;
27265;SDS011;14766;51.380;13.762;2022-09-09T07:39:40;2.40;;;0.82;;
27265;SDS011;14766;51.380;13.762;2022-09-09T07:42:09;2.55;;;0.70;;
27265;SDS011;14766;51.380;13.762;2022-09-09T07:44:39;1.98;;;0.60;;
27265;SDS011;14766;51.380;13.762;2022-09-09T07:47:11;0.95;;;0.55;;
27265;SDS011;14766;51.380;13.762;2022-09-09T07:49:43;1.85;;;0.80;;
27265;SDS011;14766;51.380;13.762;2022-09-09T07:52:15;2.78;;;1.10;;
27265;SDS011;14766;51.380;13.762;2022-09-09T07:54:50;2.65;;;1.02;;
27265;SDS011;14766;51.380;13.762;2022-09-09T07:57:17;1.88;;;0.75;;
27265;SDS011;14766;51.380;13.762;2022-09-09T07:59:46;1.83;;;1.00;;
27265;SDS011;14766;51.380;13.762;2022-09-09T08:02:13;1.17;;;0.98;;
27265;SDS011;14766;51.380;13.762;2022-09-09T08:04:41;1.85;;;1.27;;
27265;SDS011;14766;51.380;13.762;2022-09-09T08:07:09;2.05;;;1.00;;
27265;SDS011;14766;51.380;13.762;2022-09-09T08:09:45;1.33;;;0.60;;
27265;SDS011;14766;51.380;13.762;2022-09-09T08:12:21;1.17;;;0.60;;
27265;SDS011;14766;51.380;13.762;2022-09-09T08:14:48;1.83;;;0.57;;
27265;SDS011;14766;51.380;13.762;2022-09-09T08:17:16;3.05;;;1.02;;
27265;SDS011;14766;51.380;13.762;2022-09-09T08:19:43;1.85;;;0.80;;
27265;SDS011;14766;51.380;13.762;2022-09-09T08:22:17;2.97;;;1.00;;
27265;SDS011;14766;51.380;13.762;2022-09-09T08:24:45;1.95;;;1.05;;
27265;SDS011;14766;51.380;13.762;2022-09-09T08:27:13;1.92;;;0.82;;
27265;SDS011;14766;51.380;13.762;2022-09-09T08:29:41;1.55;;;0.98;;
27265;SDS011;14766;51.380;13.762;2022-09-09T08:32:08;2.83;;;0.90;;
27265;SDS011;14766;51.380;13.762;2022-09-09T08:34:38;2.72;;;1.13;;
27265;SDS011;14766;51.380;13.762;2022-09-09T08:37:11;3.72;;;1.20;;
27265;SDS011;14766;51.380;13.762;2022-09-09T08:39:39;1.52;;;0.70;;
27265;SDS011;14766;51.380;13.762;2022-09-09T08:42:13;2.83;;;1.00;;
27265;SDS011;14766;51.380;13.762;2022-09-09T08:45:26;2.63;;;0.82;;
27265;SDS011;14766;51.380;13.762;2022-09-09T08:50:53;2.17;;;1.20;;
27265;SDS011;14766;51.380;13.762;2022-09-09T08:53:34;3.50;;;1.15;;
27265;SDS011;14766;51.380;13.762;2022-09-09T08:56:11;2.15;;;1.27;;
27265;SDS011;14766;51.380;13.762;2022-09-09T08:58:47;4.82;;;2.05;;
27265;SDS011;14766;51.380;13.762;2022-09-09T09:01:40;5.65;;;2.75;;
27265;SDS011;14766;51.380;13.762;2022-09-09T09:04:41;2.25;;;1.40;;
27265;SDS011;14766;51.380;13.762;2022-09-09T09:07:42;1.73;;;0.90;;
27265;SDS011;14766;51.380;13.762;2022-09-09T09:10:45;1.38;;;1.13;;
27265;SDS011;14766;51.380;13.762;2022-09-09T09:13:31;1.90;;;1.00;;
27265;SDS011;14766;51.380;13.762;2022-09-09T09:16:47;2.08;;;0.95;;
27265;SDS011;14766;51.380;13.762;2022-09-09T09:19:22;1.52;;;0.70;;
27265;SDS011;14766;51.380;13.762;2022-09-09T09:21:57;3.33;;;0.93;;
27265;SDS011;14766;51.380;13.762;2022-09-09T09:27:12;3.37;;;1.00;;
27265;SDS011;14766;51.380;13.762;2022-09-09T09:29:47;2.88;;;1.02;;
27265;SDS011;14766;51.380;13.762;2022-09-09T09:32:36;1.90;;;1.02;;
27265;SDS011;14766;51.380;13.762;2022-09-09T09:35:10;1.23;;;0.80;;
27265;SDS011;14766;51.380;13.762;2022-09-09T09:37:40;3.90;;;1.25;;
27265;SDS011;14766;51.380;13.762;2022-09-09T09:40:33;2.50;;;1.00;;
27265;SDS011;14766;51.380;13.762;2022-09-09T09:43:01;1.85;;;0.80;;
27265;SDS011;14766;51.380;13.762;2022-09-09T09:45:40;1.30;;;0.80;;
27265;SDS011;14766;51.380;13.762;2022-09-09T09:48:32;1.90;;;0.70;;
27265;SDS011;14766;51.380;13.762;2022-09-09T09:51:01;1.52;;;0.65;;
27265;SDS011;14766;51.380;13.762;2022-09-09T09:53:38;3.75;;;0.65;;
27265;SDS011;14766;51.380;13.762;2022-09-09T09:56:10;1.75;;;0.75;;
27265;SDS011;14766;51.380;13.762;2022-09-09T10:01:20;2.72;;;0.65;;
27265;SDS011;14766;51.380;13.762;2022-09-09T10:04:18;1.92;;;0.60;;
27265;SDS011;14766;51.380;13.762;2022-09-09T10:06:52;1.08;;;0.40;;
27265;SDS011;14766;51.380;13.762;2022-09-09T10:20:40;2.53;;;1.30;;
27265;SDS011;14766;51.380;13.762;2022-09-09T10:23:18;1.63;;;0.90;;
27265;SDS011;14766;51.380;13.762;2022-09-09T10:36:44;2.55;;;0.70;;
27265;SDS011;14766;51.380;13.762;2022-09-09T10:39:18;1.73;;;0.70;;
27265;SDS011;14766;51.380;13.762;2022-09-09T10:42:05;1.67;;;0.80;;
27265;SDS011;14766;51.380;13.762;2022-09-09T10:47:13;1.00;;;0.70;;
27265;SDS011;14766;51.380;13.762;2022-09-09T10:50:03;1.60;;;0.60;;
27265;SDS011;14766;51.380;13.762;2022-09-09T10:52:47;1.35;;;0.70;;
27265;SDS011;14766;51.380;13.762;2022-09-09T10:55:57;1.17;;;0.80;;
27265;SDS011;14766;51.380;13.762;2022-09-09T11:01:21;1.23;;;0.73;;
27265;SDS011;14766;51.380;13.762;2022-09-09T11:07:07;0.88;;;0.50;;
27265;SDS011;14766;51.380;13.762;2022-09-09T11:09:41;0.80;;;0.47;;
27265;SDS011;14766;51.380;13.762;2022-09-09T11:12:16;1.48;;;0.50;;
27265;SDS011;14766;51.380;13.762;2022-09-09T11:14:54;1.50;;;0.40;;
27265;SDS011;14766;51.380;13.762;2022-09-09T11:17:41;0.90;;;0.52;;
27265;SDS011;14766;51.380;13.762;2022-09-09T11:20:13;0.82;;;0.40;;
27265;SDS011;14766;51.380;13.762;2022-09-09T11:25:25;1.10;;;0.60;;
27265;SDS011;14766;51.380;13.762;2022-09-09T11:30:44;2.47;;;0.90;;
27265;SDS011;14766;51.380;13.762;2022-09-09T11:44:39;2.67;;;0.85;;
27265;SDS011;14766;51.380;13.762;2022-09-09T11:47:26;1.10;;;0.65;;
27265;SDS011;14766;51.380;13.762;2022-09-09T11:53:03;1.88;;;0.98;;
27265;SDS011;14766;51.380;13.762;2022-09-09T11:55:40;1.13;;;0.80;;
27265;SDS011;14766;51.380;13.762;2022-09-09T12:00:41;1.60;;;0.60;;
27265;SDS011;14766;51.380;13.762;2022-09-09T12:09:05;1.70;;;0.60;;
27265;SDS011;14766;51.380;13.762;2022-09-09T12:11:45;2.60;;;0.98;;
27265;SDS011;14766;51.380;13.762;2022-09-09T12:14:35;1.48;;;0.80;;
27265;SDS011;14766;51.380;13.762;2022-09-09T12:19:47;1.20;;;0.60;;
27265;SDS011;14766;51.380;13.762;2022-09-09T12:30:29;2.97;;;0.95;;
27265;SDS011;14766;51.380;13.762;2022-09-09T12:33:08;2.45;;;0.93;;
27265;SDS011;14766;51.380;13.762;2022-09-09T12:35:40;1.35;;;0.70;;
27265;SDS011;14766;51.380;13.762;2022-09-09T12:38:14;1.23;;;0.63;;
27265;SDS011;14766;51.380;13.762;2022-09-09T12:40:55;0.75;;;0.60;;
27265;SDS011;14766;51.380;13.762;2022-09-09T12:43:24;3.00;;;1.08;;
27265;SDS011;14766;51.380;13.762;2022-09-09T12:45:54;3.95;;;1.20;;
27265;SDS011;14766;51.380;13.762;2022-09-09T12:48:30;7.05;;;1.35;;
27265;SDS011;14766;51.380;13.762;2022-09-09T12:51:05;3.95;;;0.90;;
27265;SDS011;14766;51.380;13.762;2022-09-09T12:53:45;2.50;;;0.88;;
27265;SDS011;14766;51.380;13.762;2022-09-09T12:56:20;5.63;;;1.63;;
27265;SDS011;14766;51.380;13.762;2022-09-09T12:58:56;5.05;;;1.42;;
27265;SDS011;14766;51.380;13.762;2022-09-09T13:01:28;4.18;;;1.38;;
27265;SDS011;14766;51.380;13.762;2022-09-09T13:03:57;4.05;;;1.63;;
27265;SDS011;14766;51.380;13.762;2022-09-09T13:06:26;2.63;;;1.30;;
27265;SDS011;14766;51.380;13.762;2022-09-09T13:08:58;4.03;;;1.30;;
27265;SDS011;14766;51.380;13.762;2022-09-09T13:13:58;3.90;;;1.10;;
27265;SDS011;14766;51.380;13.762;2022-09-09T13:16:27;3.17;;;0.95;;
27265;SDS011;14766;51.380;13.762;2022-09-09T13:19:07;3.55;;;1.17;;
27265;SDS011;14766;51.380;13.762;2022-09-09T13:21:37;3.47;;;1.10;;
27265;SDS011;14766;51.380;13.762;2022-09-09T13:24:06;1.52;;;0.90;;
27265;SDS011;14766;51.380;13.762;2022-09-09T13:26:56;2.25;;;1.10;;
27265;SDS011;14766;51.380;13.762;2022-09-09T13:29:25;2.88;;;0.90;;
27265;SDS011;14766;51.380;13.762;2022-09-09T13:31:52;3.60;;;1.85;;
27265;SDS011;14766;51.380;13.762;2022-09-09T13:34:30;2.30;;;0.90;;
27265;SDS011;14766;51.380;13.762;2022-09-09T13:37:00;1.67;;;0.80;;
27265;SDS011;14766;51.380;13.762;2022-09-09T13:42:03;1.98;;;1.00;;
27265;SDS011;14766;51.380;13.762;2022-09-09T13:44:31;3.92;;;0.80;;
27265;SDS011;14766;51.380;13.762;2022-09-09T13:47:06;2.38;;;0.82;;
27265;SDS011;14766;51.380;13.762;2022-09-09T13:49:46;4.55;;;1.27;;
27265;SDS011;14766;51.380;13.762;2022-09-09T13:52:15;2.75;;;1.08;;
27265;SDS011;14766;51.380;13.762;2022-09-09T13:54:48;1.92;;;0.90;;
27265;SDS011;14766;51.380;13.762;2022-09-09T13:57:18;4.55;;;0.90;;
27265;SDS011;14766;51.380;13.762;2022-09-09T13:59:52;0.98;;;0.90;;
27265;SDS011;14766;51.380;13.762;2022-09-09T14:02:32;2.58;;;1.00;;
27265;SDS011;14766;51.380;13.762;2022-09-09T14:05:00;3.00;;;1.10;;
27265;SDS011;14766;51.380;13.762;2022-09-09T14:07:27;2.35;;;1.05;;
27265;SDS011;14766;51.380;13.762;2022-09-09T14:09:55;2.05;;;0.90;;
27265;SDS011;14766;51.380;13.762;2022-09-09T14:12:23;2.08;;;0.82;;
27265;SDS011;14766;51.380;13.762;2022-09-09T14:14:51;1.63;;;0.90;;
27265;SDS011;14766;51.380;13.762;2022-09-09T14:17:20;1.42;;;0.80;;
27265;SDS011;14766;51.380;13.762;2022-09-09T14:19:48;1.10;;;0.90;;
27265;SDS011;14766;51.380;13.762;2022-09-09T14:22:17;1.40;;;0.80;;
27265;SDS011;14766;51.380;13.762;2022-09-09T14:24:45;1.52;;;0.80;;
27265;SDS011;14766;51.380;13.762;2022-09-09T14:27:13;1.38;;;0.77;;
27265;SDS011;14766;51.380;13.762;2022-09-09T14:29:40;1.05;;;0.80;;
27265;SDS011;14766;51.380;13.762;2022-09-09T14:32:10;1.55;;;0.60;;
27265;SDS011;14766;51.380;13.762;2022-09-09T14:34:39;1.55;;;0.80;;
27265;SDS011;14766;51.380;13.762;2022-09-09T14:37:07;1.27;;;0.57;;
27265;SDS011;14766;51.380;13.762;2022-09-09T14:39:34;2.13;;;0.73;;
27265;SDS011;14766;51.380;13.762;2022-09-09T14:42:02;1.35;;;0.57;;
27265;SDS011;14766;51.380;13.762;2022-09-09T14:44:29;1.75;;;0.85;;
27265;SDS011;14766;51.380;13.762;2022-09-09T14:46:56;1.80;;;0.82;;
27265;SDS011;14766;51.380;13.762;2022-09-09T14:49:24;1.27;;;0.70;;
27265;SDS011;14766;51.380;13.762;2022-09-09T14:51:52;0.80;;;0.70;;
27265;SDS011;14766;51.380;13.762;2022-09-09T14:54:19;1.67;;;0.90;;
27265;SDS011;14766;51.380;13.762;2022-09-09T14:56:48;1.63;;;0.90;;
27265;SDS011;14766;51.380;13.762;2022-09-09T14:59:16;0.80;;;0.70;;
27265;SDS011;14766;51.380;13.762;2022-09-09T15:01:44;1.98;;;0.80;;
27265;SDS011;14766;51.380;13.762;2022-09-09T15:04:13;2.58;;;0.63;;
27265;SDS011;14766;51.380;13.762;2022-09-09T15:06:43;1.15;;;0.63;;
27265;SDS011;14766;51.380;13.762;2022-09-09T15:09:16;1.55;;;0.75;;
27265;SDS011;14766;51.380;13.762;2022-09-09T15:11:44;2.08;;;0.88;;
27265;SDS011;14766;51.380;13.762;2022-09-09T15:14:11;2.25;;;0.73;;
27265;SDS011;14766;51.380;13.762;2022-09-09T15:16:39;3.85;;;2.58;;
27265;SDS011;14766;51.380;13.762;2022-09-09T15:19:06;2.88;;;2.30;;
27265;SDS011;14766;51.380;13.762;2022-09-09T15:21:36;17.98;;;16.23;;
27265;SDS011;14766;51.380;13.762;2022-09-09T15:24:04;16.00;;;14.50;;
27265;SDS011;14766;51.380;13.762;2022-09-09T15:26:35;6.38;;;5.78;;
27265;SDS011;14766;51.380;13.762;2022-09-09T15:29:05;13.75;;;12.43;;
27265;SDS011;14766;51.380;13.762;2022-09-09T15:31:34;15.45;;;11.45;;
27265;SDS011;14766;51.380;13.762;2022-09-09T15:34:05;16.15;;;14.60;;
27265;SDS011;14766;51.380;13.762;2022-09-09T15:39:04;11.82;;;10.70;;
27265;SDS011;14766;51.380;13.762;2022-09-09T15:41:39;8.13;;;6.47;;
27265;SDS011;14766;51.380;13.762;2022-09-09T15:44:09;5.75;;;4.88;;
27265;SDS011;14766;51.380;13.762;2022-09-09T15:46:40;8.77;;;5.68;;
27265;SDS011;14766;51.380;13.762;2022-09-09T15:49:13;7.80;;;6.55;;
27265;SDS011;14766;51.380;13.762;2022-09-09T15:51:46;17.75;;;14.32;;
27265;SDS011;14766;51.380;13.762;2022-09-09T15:54:18;37.80;;;26.55;;
27265;SDS011;14766;51.380;13.762;2022-09-09T15:56:47;32.95;;;24.60;;
27265;SDS011;14766;51.380;13.762;2022-09-09T15:59:26;14.95;;;10.65;;
27265;SDS011;14766;51.380;13.762;2022-09-09T16:01:54;5.13;;;3.42;;
27265;SDS011;14766;51.380;13.762;2022-09-09T16:04:23;4.60;;;2.47;;
27265;SDS011;14766;51.380;13.762;2022-09-09T16:07:04;3.28;;;2.03;;
27265;SDS011;14766;51.380;13.762;2022-09-09T16:09:32;4.97;;;3.30;;
27265;SDS011;14766;51.380;13.762;2022-09-09T16:12:02;2.47;;;1.92;;
27265;SDS011;14766;51.380;13.762;2022-09-09T16:14:34;2.40;;;1.40;;
27265;SDS011;14766;51.380;13.762;2022-09-09T16:17:02;1.52;;;0.90;;
27265;SDS011;14766;51.380;13.762;2022-09-09T16:19:31;2.63;;;0.90;;
27265;SDS011;14766;51.380;13.762;2022-09-09T16:21:59;1.45;;;0.88;;
27265;SDS011;14766;51.380;13.762;2022-09-09T16:24:26;1.38;;;0.90;;
27265;SDS011;14766;51.380;13.762;2022-09-09T16:26:54;1.13;;;0.90;;
27265;SDS011;14766;51.380;13.762;2022-09-09T16:29:21;3.33;;;1.33;;
27265;SDS011;14766;51.380;13.762;2022-09-09T16:31:51;61.25;;;46.08;;
27265;SDS011;14766;51.380;13.762;2022-09-09T16:34:21;27.05;;;21.42;;
27265;SDS011;14766;51.380;13.762;2022-09-09T16:36:48;12.20;;;9.50;;
27265;SDS011;14766;51.380;13.762;2022-09-09T16:39:17;7.00;;;5.45;;
27265;SDS011;14766;51.380;13.762;2022-09-09T16:41:47;4.53;;;2.67;;
27265;SDS011;14766;51.380;13.762;2022-09-09T16:44:16;2.25;;;1.70;;
27265;SDS011;14766;51.380;13.762;2022-09-09T16:46:45;3.95;;;1.30;;
27265;SDS011;14766;51.380;13.762;2022-09-09T16:49:15;10.40;;;6.70;;
27265;SDS011;14766;51.380;13.762;2022-09-09T16:51:45;5.93;;;3.08;;
27265;SDS011;14766;51.380;13.762;2022-09-09T16:54:20;11.20;;;6.65;;
27265;SDS011;14766;51.380;13.762;2022-09-09T16:56:51;7.38;;;5.00;;
27265;SDS011;14766;51.380;13.762;2022-09-09T16:59:19;19.63;;;11.32;;
27265;SDS011;14766;51.380;13.762;2022-09-09T17:01:49;11.48;;;6.22;;
27265;SDS011;14766;51.380;13.762;2022-09-09T17:04:21;8.85;;;4.68;;
27265;SDS011;14766;51.380;13.762;2022-09-09T17:06:54;5.10;;;3.35;;
27265;SDS011;14766;51.380;13.762;2022-09-09T17:09:24;18.33;;;11.32;;
27265;SDS011;14766;51.380;13.762;2022-09-09T17:11:56;4.45;;;2.17;;
27265;SDS011;14766;51.380;13.762;2022-09-09T17:14:23;5.35;;;2.95;;
27265;SDS011;14766;51.380;13.762;2022-09-09T17:16:50;5.18;;;3.17;;
27265;SDS011;14766;51.380;13.762;2022-09-09T17:19:17;30.90;;;21.80;;
27265;SDS011;14766;51.380;13.762;2022-09-09T17:21:45;11.35;;;8.00;;
27265;SDS011;14766;51.380;13.762;2022-09-09T17:24:35;39.75;;;24.13;;